ADDS - METARS form results

Aviation Digital Data Service (ADDS)

Output produced by METARs form (0131 UTC 25 May 2022)
found at http://aviationweather.gov/metar/data/
 
METAR text: KVYS 250118Z AUTO 06015G22KT 10SM SCT075 BKN120 17/06 A3005 RMK AO2
Conditions at: KVYS (PERU , IL, US) observed 0118 UTC 25 May 2022
Temperature: 17.0°C (63°F)
Dewpoint: 6.0°C (43°F) [RH = 48%]
Pressure (altimeter): 30.05 inches Hg (1017.7 mb)
Winds: from the ENE (60 degrees) at 17 MPH (15 knots; 7.7 m/s)
gusting to 25 MPH (22 knots; 11.3 m/s)
Visibility: 10 or more miles (16+ km)
Ceiling: 12000 feet AGL
Clouds: scattered clouds at 7500 feet AGL
broken clouds at 12000 feet AGL
Weather: automated observation with no human augmentation;
there may or may not be significant weather present at this time

METAR text: KVYS 250037Z AUTO 06015G21KT 10SM CLR 18/06 A3005 RMK AO2
Conditions at: KVYS (PERU , IL, US) observed 0037 UTC 25 May 2022
Temperature: 18.0°C (64°F)
Dewpoint: 6.0°C (43°F) [RH = 45%]
Pressure (altimeter): 30.05 inches Hg (1017.7 mb)
Winds: from the ENE (60 degrees) at 17 MPH (15 knots; 7.7 m/s)
gusting to 24 MPH (21 knots; 10.8 m/s)
Visibility: 10 or more miles (16+ km)
Ceiling: at least 12,000 feet AGL
Clouds: sky clear below 12,000 feet AGL
Weather: automated observation with no human augmentation;
there may or may not be significant weather present at this time